Weather at Rybnik-Gotarowice Glider Field

Public forecast

Using degrees Celsius for public forecast. Weather courtesy of forecast.io.

Closest aviation weather report (METAR) to Rybnik-Gotarowice Glider Field

Closest report is Katowice Wojciech Korfanty International Airport, 29.9 nm (55.4 km) NE.

2024/05/26 00:00 (retrieved 34 minutes ago)

EPKT 260000Z VRB02KT CAVOK 12/10 Q1019

Closest aviation forecast (TAF) to Rybnik-Gotarowice Glider Field

Closest forecast is Sliač Airport, 88.3 nm (163.5 km) SSE.

2024/05/25 18:36 (retrieved 6 hours ago)

TAF TAF LZSL 251630Z 2518/2606 14006KT 9999 SCT060 PROB40 TEMPO 2518/2519 -SHRA FEW040CB BKN050 BECMG 2520/2522 VRB03KT CAVOK